PORT of SANXENXO

Land: Spain Land: Spain (ES)
Latitude / Longitude: 42.397275° / -8.803478° Toon op kaart Toon op kaart
Lokale Tijd:  UTC +2
UN/LOCODE: ESSXX
Schepen momenteel in haven: 4

Recente Aankomst- en Vertrektijden


Scheepsnaam
Aankomst (UTC)
Aankomst (LT)
Vertrek (UTC)
Vertrek (LT)
Vessel Type: Jachten & Overige  ONE PLANET ONE OCEAN 2014-10-21 16:24:00 2014-10-21 18:24:00
Vessel Type: Jachten & Overige  GITANA80 GAES 2014-10-21 15:05:00 2014-10-21 17:05:00
Vessel Type: Vissersboot  EREINOTZ 2014-10-10 23:50:00 2014-10-11 01:50:00 2014-10-21 11:18:00 2014-10-21 13:18:00
Vessel Type: Jachten & Overige  GITANA80 GAES 2014-10-14 11:58:00 2014-10-14 13:58:00 2014-10-21 10:17:00 2014-10-21 12:17:00
Vessel Type: Vissersboot  CASTRO CARRACELAS 2014-10-20 12:44:00 2014-10-20 14:44:00 2014-10-20 13:08:00 2014-10-20 15:08:00
Vessel Type: Vissersboot  CASTRO CARRACELAS 2014-10-20 11:38:00 2014-10-20 13:38:00 2014-10-20 11:50:00 2014-10-20 13:50:00
Vessel Type: Vissersboot  CASTRO CARRACELAS 2014-10-20 05:54:00 2014-10-20 07:54:00 2014-10-20 06:06:00 2014-10-20 08:06:00
Vessel Type: Vissersboot  CASTRO CARRACELAS 2014-10-16 14:13:00 2014-10-16 16:13:00 2014-10-20 04:02:00 2014-10-20 06:02:00
Vessel Type: Jachten & Overige  AKELA 2014-10-16 18:21:00 2014-10-16 20:21:00 2014-10-18 12:25:00 2014-10-18 14:25:00
Vessel Type: Vissersboot  CASTRO CARRACELAS 2014-10-16 14:13:00 2014-10-16 16:13:00 2014-10-17 07:31:00 2014-10-17 09:31:00

Verwachte aankomsten


Scheepsnaam
Scheduled Arrival (UTC)
Geplande Aankomst (lokale tijd)
Geschatte Aankomsttijd (UTC)
Geschatte Aankomsttijd (Lokaal)
Geen gegevens gevonden

Wind Forecast


    
Tijd (UTC)
Snelheid
Direction
Temperature
2014-10-22 00:00:00 9 knots 79° 19°C
2014-10-22 03:00:00 7 knots 82° 18°C
2014-10-22 06:00:00 7 knots 88° 17°C
2014-10-22 09:00:00 5 knots 95° 17°C
2014-10-22 12:00:00 4 knots 347° 20°C
2014-10-22 15:00:00 7 knots 344° 20°C
2014-10-22 18:00:00 6 knots 351° 20°C
2014-10-22 21:00:00 4 knots 106° 20°C
2014-10-23 00:00:00 5 knots 114° 19°C
2014-10-23 03:00:00 6 knots 117° 18°C
2014-10-23 06:00:00 6 knots 127° 18°C
2014-10-23 09:00:00 3 knots 146° 19°C
2014-10-23 12:00:00 5 knots 272° 20°C
2014-10-23 15:00:00 9 knots 153° 21°C
2014-10-23 18:00:00 8 knots 143° 23°C
2014-10-23 21:00:00 6 knots 359° 19°C
2014-10-24 00:00:00 9 knots 142° 19°C